Time;durP1;ratioP1;P1;durP2;ratioP2;P2;SDS_P1;SDS_P2;PMS_P1;PMS_P2;Temp;Humidity;BMP_temperature;BMP_pressure;BME280_temperature;BME280_humidity;BME280_pressure;Samples;Min_cycle;Max_cycle;Signal;HPM_P1;HPM_P2
2023/03/28 00:01:24;;;;;;;;;;;9.30;99.90;;;;;;5091111;28;19923;-84
2023/03/28 00:03:51;;;;;;;;;;;9.50;99.90;;;;;;5074255;28;20287;-84
2023/03/28 00:06:17;;;;;;;;;;;9.30;99.90;;;;;;5092417;28;19920;-84
2023/03/28 00:08:44;;;;;;;;;;;9.50;99.90;;;;;;5092180;28;19913;-84
2023/03/28 00:11:18;;;;;;;;;;;9.10;99.90;;;;;;5093218;28;19909;-86
2023/03/28 00:13:52;;;;;;;;;;;9.00;99.90;;;;;;5092638;28;20355;-84
2023/03/28 00:16:18;;;;;;;;;;;9.00;99.90;;;;;;5106920;28;19912;-84
2023/03/28 00:18:43;;;;;;;;;;;8.80;99.90;;;;;;5092389;28;19912;-84
2023/03/28 00:21:22;;;;;;;;;;;8.90;99.90;;;;;;5093101;28;19908;-84
2023/03/28 00:23:51;;;;;;;;;;;8.80;99.90;;;;;;5093537;28;19908;-84
2023/03/28 00:26:17;;;;;;;;;;;9.20;99.90;;;;;;5095572;28;20036;-84
2023/03/28 00:28:44;;;;;;;;;;;8.80;99.90;;;;;;5099330;28;19919;-84
2023/03/28 00:31:10;;;;;;;;;;;9.30;99.90;;;;;;5080934;28;20349;-84
2023/03/28 00:33:36;;;;;;;;;;;8.70;99.90;;;;;;5092081;28;19944;-85
2023/03/28 00:36:01;;;;;;;;;;;8.90;99.90;;;;;;5091622;28;20448;-84
2023/03/28 00:38:27;;;;;;;;;;;8.70;99.90;;;;;;5092012;28;19908;-88
2023/03/28 00:40:56;;;;;;;;;;;8.70;99.90;;;;;;5091060;28;19908;-85
2023/03/28 00:43:36;;;;;;;;;;;8.70;99.90;;;;;;5107307;28;19913;-84
2023/03/28 00:46:02;;;;;;;;;;;8.70;99.90;;;;;;5090990;28;19916;-84
2023/03/28 00:48:28;;;;;;;;;;;8.70;99.90;;;;;;5091627;28;19943;-84
2023/03/28 00:51:02;;;;;;;;;;;8.70;99.90;;;;;;5091425;28;19916;-84
2023/03/28 00:53:30;;;;;;;;;;;9.10;99.90;;;;;;5091310;28;20367;-83
2023/03/28 00:55:58;;;;;;;;;;;8.70;99.90;;;;;;5091158;28;19928;-87
2023/03/28 00:58:26;;;;;;;;;;;9.10;99.90;;;;;;5091313;28;19908;-85
2023/03/28 01:00:53;;;;;;;;;;;8.60;99.90;;;;;;5105404;28;19909;-85
2023/03/28 01:03:21;;;;;;;;;;;8.50;99.90;;;;;;5090226;28;19912;-84
2023/03/28 01:05:46;;;;;;;;;;;8.60;99.90;;;;;;5091231;28;19916;-83
2023/03/28 01:08:18;;;;;;;;;;;8.70;99.90;;;;;;5091976;28;19923;-84
2023/03/28 01:10:43;;;;;;;;;;;8.50;99.90;;;;;;5091248;28;19908;-85
2023/03/28 01:13:09;;;;;;;;;;;8.60;99.90;;;;;;5106825;28;19957;-83
2023/03/28 01:15:35;;;;;;;;;;;8.60;99.90;;;;;;5106529;28;20314;-83
2023/03/28 01:18:01;;;;;;;;;;;8.50;99.90;;;;;;5069984;28;19908;-84
2023/03/28 01:20:27;;;;;;;;;;;8.50;99.90;;;;;;5090671;28;19916;-83
2023/03/28 01:23:07;;;;;;;;;;;8.50;99.90;;;;;;5089852;28;19965;-84
2023/03/28 01:25:47;;;;;;;;;;;8.50;99.90;;;;;;5087711;28;19920;-84
2023/03/28 01:28:18;;;;;;;;;;;8.40;99.90;;;;;;5091486;28;19908;-83
2023/03/28 01:30:50;;;;;;;;;;;8.50;99.90;;;;;;5091556;28;20425;-83
2023/03/28 01:33:23;;;;;;;;;;;8.50;99.90;;;;;;5090746;28;19912;-83
2023/03/28 01:36:07;;;;;;;;;;;8.40;99.90;;;;;;5090651;28;19920;-84
2023/03/28 01:38:42;;;;;;;;;;;8.40;99.90;;;;;;5089322;28;19930;-83
2023/03/28 01:41:07;;;;;;;;;;;8.40;99.90;;;;;;5090079;28;20237;-83
2023/03/28 01:43:33;;;;;;;;;;;8.80;99.90;;;;;;5089829;28;19916;-86
2023/03/28 01:46:09;;;;;;;;;;;8.70;99.90;;;;;;5089688;28;19929;-86
2023/03/28 01:48:34;;;;;;;;;;;8.40;99.90;;;;;;5072292;28;19915;-85
2023/03/28 01:51:19;;;;;;;;;;;8.60;99.90;;;;;;5072243;28;19958;-84
2023/03/28 01:53:47;;;;;;;;;;;8.40;99.90;;;;;;5091346;28;19948;-85
2023/03/28 01:56:29;;;;;;;;;;;8.40;99.90;;;;;;5090284;28;19951;-84
2023/03/28 01:59:06;;;;;;;;;;;8.40;99.90;;;;;;5089971;28;20371;-84
2023/03/28 02:01:36;;;;;;;;;;;8.40;99.90;;;;;;5072140;28;20379;-83
2023/03/28 02:04:05;;;;;;;;;;;8.50;99.90;;;;;;5088937;28;19916;-84
2023/03/28 02:06:33;;;;;;;;;;;8.30;99.90;;;;;;5089492;28;19912;-85
2023/03/28 02:08:59;;;;;;;;;;;8.30;99.90;;;;;;5072254;28;19920;-84
2023/03/28 02:11:26;;;;;;;;;;;8.40;99.90;;;;;;5089815;28;19915;-85
2023/03/28 02:14:05;;;;;;;;;;;8.90;99.90;;;;;;5089029;28;19908;-83
2023/03/28 02:16:32;;;;;;;;;;;8.10;99.90;;;;;;5089263;28;19936;-83
2023/03/28 02:18:58;;;;;;;;;;;8.10;99.90;;;;;;5089065;28;19961;-83
2023/03/28 02:21:28;;;;;;;;;;;8.00;99.90;;;;;;5090122;28;19912;-87
2023/03/28 02:23:54;;;;;;;;;;;7.40;99.90;;;;;;5090157;28;19908;-86
2023/03/28 02:26:21;;;;;;;;;;;8.20;99.90;;;;;;5083747;28;20356;-83
2023/03/28 02:28:48;;;;;;;;;;;8.10;99.90;;;;;;5089968;28;19916;-83
2023/03/28 02:31:14;;;;;;;;;;;8.20;99.90;;;;;;5089127;28;19916;-84
2023/03/28 02:33:44;;;;;;;;;;;8.10;99.90;;;;;;5071176;28;19908;-84
2023/03/28 02:36:16;;;;;;;;;;;7.80;99.90;;;;;;5089228;28;19912;-84
2023/03/28 02:38:46;;;;;;;;;;;7.80;99.90;;;;;;5089148;28;19955;-84
2023/03/28 02:41:32;;;;;;;;;;;8.20;99.90;;;;;;5069556;28;20390;-83
2023/03/28 02:44:12;;;;;;;;;;;7.80;99.90;;;;;;5089248;28;19908;-84
2023/03/28 02:46:56;;;;;;;;;;;7.90;99.90;;;;;;5089050;28;19908;-83
2023/03/28 02:49:30;;;;;;;;;;;7.90;99.90;;;;;;5089488;28;20375;-83
2023/03/28 02:52:19;;;;;;;;;;;7.60;99.90;;;;;;5070709;28;20004;-84
2023/03/28 02:54:47;;;;;;;;;;;11.00;99.90;;;;;;5089038;28;19920;-83
2023/03/28 02:57:24;;;;;;;;;;;8.00;99.90;;;;;;5104069;28;20397;-83
2023/03/28 02:59:58;;;;;;;;;;;7.90;99.90;;;;;;5090715;28;19908;-85
2023/03/28 03:02:24;;;;;;;;;;;7.90;99.90;;;;;;5089548;28;19908;-86
2023/03/28 03:04:50;;;;;;;;;;;7.90;99.90;;;;;;5090125;28;19913;-84
2023/03/28 03:07:16;;;;;;;;;;;8.50;99.90;;;;;;5089132;28;19912;-84
2023/03/28 03:13:34;;;;;;;;;;;8.00;99.90;;;;;;5032245;28;19949;-94
2023/03/28 03:22:08;;;;;;;;;;;7.90;99.90;;;;;;5028655;28;19902;-95
2023/03/28 03:25:15;;;;;;;;;;;;;;;;;;;;;
2023/03/28 03:27:46;;;;;;;;;;;;;;;;;;4964508;28;19930;-94
2023/03/28 03:30:35;;;;;;;;;;;7.90;99.90;;;;;;4999405;28;19910;-94
2023/03/28 03:33:24;;;;;;;;;;;;;;;;;;;;;
2023/03/28 03:37:19;;;;;;;;;;;7.80;99.90;;;;;;5005048;28;19977;-95
2023/03/28 03:39:21;;;;;;;;;;;7.90;99.90;;;;;;5000658;28;20151;-94
2023/03/28 03:45:16;;;;;;;;;;;7.90;99.90;;;;;;5020750;28;19948;-92
2023/03/28 03:48:02;;;;;;;;;;;7.90;99.90;;;;;;5022567;28;20395;-94
2023/03/28 03:57:21;;;;;;;;;;;8.50;99.90;;;;;;4960325;29;19946;-93
2023/03/28 04:06:57;;;;;;;;;;;7.90;99.90;;;;;;4894650;29;19923;-94
2023/03/28 05:03:28;;;;;;;;;;;7.90;99.90;;;;;;5361155;22;19925;-90
2023/03/28 05:31:20;;;;;;;;;;;;;;;;;;;;;
2023/03/28 07:12:36;;;;;;;;;;;8.20;99.90;;;;;;5155038;22;25981907;-91
2023/03/28 07:15:06;;;;;;;;;;;8.20;99.90;;;;;;6199806;23;19916;-91
2023/03/28 07:17:32;;;;;;;;;;;8.30;99.90;;;;;;6220866;23;20355;-92
2023/03/28 07:39:38;;;;;;;;;;;;;;;;;;;;;
2023/03/28 07:49:14;;;;;;;;;;;;;;;;;;;;;
2023/03/28 08:27:57;;;;;;;;;;;9.70;99.90;;;;;;6186912;22;19907;-92
2023/03/28 08:36:42;;;;;;;;;;;9.90;99.90;;;;;;6244660;23;19918;-91
2023/03/28 08:45:56;;;;;;;;;;;;;;;;;;;;;
2023/03/28 08:59:00;;;;;;;;;;;;;;;;;;;;;
2023/03/28 09:08:24;;;;;;;;;;;10.30;99.90;;;;;;6064217;23;19938;-92
2023/03/28 09:17:28;;;;;;;;;;;10.50;99.90;;;;;;6041847;23;19930;-92
2023/03/28 09:39:50;;;;;;;;;;;11.10;99.90;;;;;;6205553;22;19920;-95
2023/03/28 09:55:43;;;;;;;;;;;12.00;99.90;;;;;;6163419;23;19912;-92
2023/03/28 09:58:40;;;;;;;;;;;12.10;99.90;;;;;;6110971;23;20164;-93
2023/03/28 10:04:53;;;;;;;;;;;;;;;;;;;;;
2023/03/28 10:07:48;;;;;;;;;;;12.20;99.90;;;;;;6100463;23;19905;-92
2023/03/28 10:10:19;;;;;;;;;;;12.30;99.90;;;;;;6077446;23;19905;-92
2023/03/28 10:13:12;;;;;;;;;;;12.30;99.90;;;;;;6081717;23;19905;-94
2023/03/28 10:23:00;;;;;;;;;;;;;;;;;;;;;
2023/03/28 10:46:32;;;;;;;;;;;12.60;99.90;;;;;;6234979;23;19932;-93
2023/03/28 10:51:59;;;;;;;;;;;13.00;99.90;;;;;;6206038;22;20356;-92
2023/03/28 10:54:34;;;;;;;;;;;13.00;99.90;;;;;;6245653;23;19962;-92
2023/03/28 10:57:19;;;;;;;;;;;12.90;99.90;;;;;;6242460;23;19943;-91
2023/03/28 10:59:48;;;;;;;;;;;12.70;99.90;;;;;;6240204;23;19939;-91
2023/03/28 11:02:17;;;;;;;;;;;12.50;99.90;;;;;;6243790;23;20218;-91
2023/03/28 11:14:19;;;;;;;;;;;12.80;99.90;;;;;;6248672;23;20356;-92
2023/03/28 11:20:05;;;;;;;;;;;12.90;99.90;;;;;;6125312;23;20306;-91
2023/03/28 11:22:31;;;;;;;;;;;12.90;99.90;;;;;;6103556;23;19905;-94
2023/03/28 11:25:22;;;;;;;;;;;12.80;99.90;;;;;;6100347;23;19909;-95
2023/03/28 11:28:33;;;;;;;;;;;12.70;99.90;;;;;;6186482;23;19952;-92
2023/03/28 11:31:23;;;;;;;;;;;12.60;99.90;;;;;;6116284;23;19905;-94
2023/03/28 11:34:27;;;;;;;;;;;;;;;;;;;;;
2023/03/28 11:40:39;;;;;;;;;;;;;;;;;;;;;
2023/03/28 11:53:38;;;;;;;;;;;;;;;;;;;;;
2023/03/28 11:56:33;;;;;;;;;;;12.30;99.90;;;;;;6153040;23;19905;-94
2023/03/28 12:07:45;;;;;;;;;;;12.80;99.90;;;;;;6171935;23;19920;-94
2023/03/28 12:10:23;;;;;;;;;;;12.80;99.90;;;;;;6227125;23;19948;-93
2023/03/28 12:13:06;;;;;;;;;;;12.80;99.90;;;;;;6222575;23;19908;-94
2023/03/28 12:22:49;;;;;;;;;;;;;;;;;;;;;
2023/03/28 12:28:33;;;;;;;;;;;13.50;99.90;;;;;;6106565;23;19905;-93
2023/03/28 12:31:20;;;;;;;;;;;13.60;99.90;;;;;;6134300;23;19932;-95
2023/03/28 12:43:14;;;;;;;;;;;13.70;99.90;;;;;;6126751;23;19920;-93
2023/03/28 12:45:43;;;;;;;;;;;13.70;99.90;;;;;;6215568;23;19903;-94
2023/03/28 12:48:15;;;;;;;;;;;13.70;99.90;;;;;;6241723;23;19912;-95
2023/03/28 12:50:48;;;;;;;;;;;13.80;99.90;;;;;;6217562;23;19908;-93
2023/03/28 12:53:14;;;;;;;;;;;13.90;99.90;;;;;;6214043;23;19904;-93
2023/03/28 12:55:42;;;;;;;;;;;14.00;99.90;;;;;;6215312;23;20333;-91
2023/03/28 12:58:28;;;;;;;;;;;14.00;99.90;;;;;;6214052;23;19904;-96
2023/03/28 13:01:12;;;;;;;;;;;14.00;99.90;;;;;;6215123;23;20361;-94
2023/03/28 13:03:56;;;;;;;;;;;13.80;99.90;;;;;;6238701;23;19904;-92
2023/03/28 13:06:32;;;;;;;;;;;14.20;99.90;;;;;;6239144;23;19910;-92
2023/03/28 13:09:04;;;;;;;;;;;13.90;99.90;;;;;;6239020;23;19904;-93
2023/03/28 13:11:39;;;;;;;;;;;13.80;99.90;;;;;;6239107;23;19986;-92
2023/03/28 13:14:23;;;;;;;;;;;13.80;99.90;;;;;;6237872;23;19911;-92
2023/03/28 13:16:55;;;;;;;;;;;13.90;99.90;;;;;;6213743;23;19908;-93
2023/03/28 13:19:36;;;;;;;;;;;14.10;99.90;;;;;;6213341;23;19908;-93
2023/03/28 13:22:02;;;;;;;;;;;14.20;99.90;;;;;;6212977;23;19904;-94
2023/03/28 13:24:29;;;;;;;;;;;14.40;99.90;;;;;;6213288;23;19911;-92
2023/03/28 13:27:16;;;;;;;;;;;14.60;99.90;;;;;;6215614;23;19908;-92
2023/03/28 13:32:46;;;;;;;;;;;15.00;99.90;;;;;;6212048;23;19919;-93
2023/03/28 13:35:51;;;;;;;;;;;15.00;99.90;;;;;;6252154;23;19935;-92
2023/03/28 13:38:30;;;;;;;;;;;15.10;99.90;;;;;;6231801;23;20248;-92
2023/03/28 13:41:08;;;;;;;;;;;15.10;99.90;;;;;;6252835;23;20119;-92
2023/03/28 13:44:12;;;;;;;;;;;15.10;99.90;;;;;;6251777;23;19912;-93
2023/03/28 13:46:42;;;;;;;;;;;15.10;99.90;;;;;;6162342;23;19904;-92
2023/03/28 13:49:13;;;;;;;;;;;15.20;99.90;;;;;;6185055;23;19957;-92
2023/03/28 13:51:59;;;;;;;;;;;15.20;99.90;;;;;;6204853;23;19928;-92
2023/03/28 13:54:27;;;;;;;;;;;15.30;99.90;;;;;;6217084;23;19912;-91
2023/03/28 13:56:52;;;;;;;;;;;15.20;99.90;;;;;;6213653;23;20007;-91
2023/03/28 13:59:18;;;;;;;;;;;15.20;99.90;;;;;;6215252;23;19904;-93
2023/03/28 14:01:47;;;;;;;;;;;15.00;99.90;;;;;;6249994;23;19904;-91
2023/03/28 14:04:18;;;;;;;;;;;15.10;99.90;;;;;;6215277;23;19932;-91
2023/03/28 14:06:43;;;;;;;;;;;15.60;99.90;;;;;;6221910;23;19911;-92
2023/03/28 14:09:28;;;;;;;;;;;15.10;99.90;;;;;;6246180;23;19908;-91
2023/03/28 14:12:05;;;;;;;;;;;15.10;99.90;;;;;;6216756;23;19904;-91
2023/03/28 14:14:39;;;;;;;;;;;15.50;99.90;;;;;;6220883;23;19923;-91
2023/03/28 14:17:10;;;;;;;;;;;15.10;99.90;;;;;;6226759;23;19888;-93
2023/03/28 14:19:56;;;;;;;;;;;15.20;99.90;;;;;;6221246;23;20232;-90
2023/03/28 14:22:28;;;;;;;;;;;15.20;99.90;;;;;;6228454;23;19952;-92
2023/03/28 14:25:01;;;;;;;;;;;15.50;99.90;;;;;;6255721;23;19928;-91
2023/03/28 14:27:35;;;;;;;;;;;15.40;99.90;;;;;;6230361;23;19912;-92
2023/03/28 14:30:00;;;;;;;;;;;15.20;99.90;;;;;;6229669;23;19908;-90
2023/03/28 14:32:31;;;;;;;;;;;15.20;99.90;;;;;;6231093;23;19911;-90
2023/03/28 14:35:26;;;;;;;;;;;15.20;99.90;;;;;;6232099;23;19966;-91
2023/03/28 14:37:53;;;;;;;;;;;15.20;99.90;;;;;;6230578;23;19909;-93
2023/03/28 14:40:21;;;;;;;;;;;15.20;99.90;;;;;;6229795;23;19904;-90
2023/03/28 14:42:48;;;;;;;;;;;15.40;99.90;;;;;;6253718;22;19912;-91
2023/03/28 14:45:19;;;;;;;;;;;15.40;99.90;;;;;;6227077;23;19944;-91
2023/03/28 14:47:45;;;;;;;;;;;15.90;99.90;;;;;;6227035;23;19911;-89
2023/03/28 14:50:15;;;;;;;;;;;15.60;99.90;;;;;;6246943;23;19904;-91
2023/03/28 14:52:43;;;;;;;;;;;15.80;99.90;;;;;;6245909;23;20380;-93
2023/03/28 14:55:18;;;;;;;;;;;16.00;99.90;;;;;;6217328;23;19912;-89
2023/03/28 14:57:45;;;;;;;;;;;16.20;99.90;;;;;;6223668;23;19904;-90
2023/03/28 15:00:14;;;;;;;;;;;16.30;99.90;;;;;;6222844;23;19911;-90
2023/03/28 15:03:03;;;;;;;;;;;16.40;99.90;;;;;;6232378;23;19924;-89
2023/03/28 15:05:50;;;;;;;;;;;16.30;99.90;;;;;;6192484;23;19911;-93
2023/03/28 15:08:18;;;;;;;;;;;17.00;99.90;;;;;;6188430;23;19931;-89
2023/03/28 15:10:48;;;;;;;;;;;16.50;99.90;;;;;;6189833;23;19908;-93
2023/03/28 15:13:19;;;;;;;;;;;17.20;99.90;;;;;;6181200;23;19979;-89
2023/03/28 15:15:46;;;;;;;;;;;16.50;99.90;;;;;;6161056;23;19912;-90
2023/03/28 15:18:16;;;;;;;;;;;16.50;99.90;;;;;;6182917;23;20012;-92
2023/03/28 15:20:43;;;;;;;;;;;16.40;99.90;;;;;;6181835;23;19904;-93
2023/03/28 15:23:13;;;;;;;;;;;16.30;99.90;;;;;;6182119;23;19904;-92
2023/03/28 15:25:44;;;;;;;;;;;16.50;99.90;;;;;;6161024;23;20042;-91
2023/03/28 15:28:15;;;;;;;;;;;16.30;99.90;;;;;;6158065;23;19991;-92
2023/03/28 15:30:42;;;;;;;;;;;16.40;99.90;;;;;;6160127;23;19904;-93
2023/03/28 15:33:11;;;;;;;;;;;16.40;99.90;;;;;;6181956;23;19904;-90
2023/03/28 15:35:38;;;;;;;;;;;16.40;99.90;;;;;;6164470;23;19915;-91
2023/03/28 15:38:08;;;;;;;;;;;16.40;99.90;;;;;;6215072;23;20241;-93
2023/03/28 15:40:45;;;;;;;;;;;16.40;99.90;;;;;;6214928;23;19908;-90
2023/03/28 15:43:28;;;;;;;;;;;16.20;99.90;;;;;;6214062;23;19912;-92
2023/03/28 15:46:13;;;;;;;;;;;16.10;99.90;;;;;;6240097;23;19904;-91
2023/03/28 15:48:42;;;;;;;;;;;16.00;99.90;;;;;;6214113;23;19911;-93
2023/03/28 15:51:10;;;;;;;;;;;16.00;99.90;;;;;;6212883;23;19908;-90
2023/03/28 15:53:39;;;;;;;;;;;15.90;99.90;;;;;;6238466;23;19904;-92
2023/03/28 15:56:07;;;;;;;;;;;15.90;99.90;;;;;;6212993;23;20260;-91
2023/03/28 15:58:33;;;;;;;;;;;15.70;99.90;;;;;;6212483;23;19983;-90
2023/03/28 16:01:17;;;;;;;;;;;15.60;99.90;;;;;;6213957;23;19914;-91
2023/03/28 16:03:43;;;;;;;;;;;15.70;99.90;;;;;;6216415;23;19904;-90
2023/03/28 16:06:17;;;;;;;;;;;15.50;99.90;;;;;;6214784;23;20340;-94
2023/03/28 16:08:50;;;;;;;;;;;15.60;99.90;;;;;;6211847;23;19904;-90
2023/03/28 16:11:20;;;;;;;;;;;15.70;99.90;;;;;;6216236;23;19911;-91
2023/03/28 16:13:46;;;;;;;;;;;15.70;99.90;;;;;;6209871;23;19958;-92
2023/03/28 16:16:26;;;;;;;;;;;15.70;99.90;;;;;;6210719;23;19907;-93
2023/03/28 16:18:51;;;;;;;;;;;15.80;99.90;;;;;;6210913;23;19904;-90
2023/03/28 16:21:18;;;;;;;;;;;15.80;99.90;;;;;;6210713;23;19911;-90
2023/03/28 16:23:44;;;;;;;;;;;15.80;99.90;;;;;;6212580;23;19910;-90
2023/03/28 16:26:10;;;;;;;;;;;15.60;99.90;;;;;;6211763;23;19947;-90
2023/03/28 16:28:35;;;;;;;;;;;15.70;99.90;;;;;;6213336;23;19904;-91
2023/03/28 16:31:01;;;;;;;;;;;15.60;99.90;;;;;;6214087;23;19904;-90
2023/03/28 16:33:27;;;;;;;;;;;15.80;99.90;;;;;;6214026;23;19919;-92
2023/03/28 16:35:54;;;;;;;;;;;15.80;99.90;;;;;;6214253;23;19911;-91
2023/03/28 16:38:20;;;;;;;;;;;16.90;99.90;;;;;;6213806;23;19915;-91
2023/03/28 16:40:47;;;;;;;;;;;15.80;99.90;;;;;;6212531;23;20244;-90
2023/03/28 16:43:14;;;;;;;;;;;15.90;99.90;;;;;;6215374;23;19961;-91
2023/03/28 16:45:43;;;;;;;;;;;15.90;99.90;;;;;;6216733;23;19908;-91
2023/03/28 16:48:09;;;;;;;;;;;16.10;99.90;;;;;;6212447;23;19908;-92
2023/03/28 16:50:35;;;;;;;;;;;16.10;99.90;;;;;;6215746;23;19979;-90
2023/03/28 16:53:01;;;;;;;;;;;16.10;99.90;;;;;;6217448;23;20225;-90
2023/03/28 16:55:26;;;;;;;;;;;16.00;99.90;;;;;;6217899;23;19943;-90
2023/03/28 16:57:52;;;;;;;;;;;15.90;99.90;;;;;;6214800;23;19904;-90
2023/03/28 17:00:18;;;;;;;;;;;15.80;99.90;;;;;;6236095;23;19904;-92
2023/03/28 17:02:46;;;;;;;;;;;15.60;99.90;;;;;;6218110;23;19911;-89
2023/03/28 17:05:12;;;;;;;;;;;15.30;99.90;;;;;;6212509;23;19912;-91
2023/03/28 17:07:37;;;;;;;;;;;15.10;99.90;;;;;;6215688;23;20303;-91
2023/03/28 17:10:03;;;;;;;;;;;15.00;99.90;;;;;;6217669;23;19911;-90
2023/03/28 17:12:30;;;;;;;;;;;14.90;99.90;;;;;;6213974;23;19911;-90
2023/03/28 17:14:56;;;;;;;;;;;14.80;99.90;;;;;;6212478;23;19956;-90
2023/03/28 17:17:21;;;;;;;;;;;14.70;99.90;;;;;;6212540;23;19908;-90
2023/03/28 17:19:48;;;;;;;;;;;14.70;99.90;;;;;;6213724;23;19958;-90
2023/03/28 17:22:13;;;;;;;;;;;14.60;99.90;;;;;;6212348;23;19904;-91
2023/03/28 17:24:40;;;;;;;;;;;14.60;99.90;;;;;;6210872;23;20154;-90
2023/03/28 17:27:05;;;;;;;;;;;14.70;99.90;;;;;;6214479;23;19919;-90
2023/03/28 17:29:31;;;;;;;;;;;14.40;99.90;;;;;;6211813;23;19908;-90
2023/03/28 17:31:57;;;;;;;;;;;14.60;99.90;;;;;;6212249;23;19915;-89
2023/03/28 17:34:22;;;;;;;;;;;14.50;99.90;;;;;;6217180;23;19912;-90
2023/03/28 17:36:50;;;;;;;;;;;14.50;99.90;;;;;;6217007;23;19991;-92
2023/03/28 17:39:16;;;;;;;;;;;14.50;99.90;;;;;;6221429;23;19911;-89
2023/03/28 17:41:41;;;;;;;;;;;14.40;99.90;;;;;;6221158;23;19907;-90
2023/03/28 17:44:10;;;;;;;;;;;14.40;99.90;;;;;;6219180;23;19918;-91
2023/03/28 17:46:36;;;;;;;;;;;14.40;99.90;;;;;;6223792;23;20312;-91
2023/03/28 17:49:02;;;;;;;;;;;14.40;99.90;;;;;;6222078;23;19908;-92
2023/03/28 17:51:27;;;;;;;;;;;14.30;99.90;;;;;;6214668;23;20344;-91
2023/03/28 17:53:54;;;;;;;;;;;14.30;99.90;;;;;;6216561;23;19911;-91
2023/03/28 17:56:21;;;;;;;;;;;14.20;99.90;;;;;;6218117;23;19971;-91
2023/03/28 17:58:46;;;;;;;;;;;14.10;99.90;;;;;;6214292;23;20218;-89
2023/03/28 18:01:13;;;;;;;;;;;14.10;99.90;;;;;;6214302;23;19935;-93
2023/03/28 18:03:41;;;;;;;;;;;14.10;99.90;;;;;;6237852;23;19939;-91
2023/03/28 18:06:07;;;;;;;;;;;13.90;99.90;;;;;;6212503;23;20443;-91
2023/03/28 18:08:32;;;;;;;;;;;13.90;99.90;;;;;;6212302;23;19908;-90
2023/03/28 18:10:59;;;;;;;;;;;13.80;99.90;;;;;;6214433;23;19931;-92
2023/03/28 18:13:25;;;;;;;;;;;13.80;99.90;;;;;;6214959;23;19954;-91
2023/03/28 18:15:50;;;;;;;;;;;13.70;99.90;;;;;;6213582;23;19995;-92
2023/03/28 18:18:17;;;;;;;;;;;13.70;99.90;;;;;;6211690;23;20317;-90
2023/03/28 18:20:42;;;;;;;;;;;13.70;99.90;;;;;;6215645;23;19911;-91
2023/03/28 18:23:08;;;;;;;;;;;13.50;99.90;;;;;;6237175;23;19904;-91
2023/03/28 18:25:37;;;;;;;;;;;13.50;99.90;;;;;;6210973;23;19911;-89
2023/03/28 18:28:03;;;;;;;;;;;13.40;99.90;;;;;;6212608;23;19911;-90
2023/03/28 18:30:28;;;;;;;;;;;13.40;99.90;;;;;;6211290;23;19904;-91
2023/03/28 18:32:54;;;;;;;;;;;13.30;99.90;;;;;;6213407;23;20249;-91
2023/03/28 18:35:20;;;;;;;;;;;13.30;99.90;;;;;;6215416;23;20252;-88
2023/03/28 18:37:46;;;;;;;;;;;13.30;99.90;;;;;;6224760;23;20333;-89
2023/03/28 18:40:13;;;;;;;;;;;13.30;99.90;;;;;;6214301;23;19908;-91
2023/03/28 18:42:39;;;;;;;;;;;13.40;99.90;;;;;;6214571;23;19908;-91
2023/03/28 18:45:05;;;;;;;;;;;13.30;99.90;;;;;;6214676;23;19911;-90
2023/03/28 18:47:31;;;;;;;;;;;13.30;99.90;;;;;;6237893;23;19904;-90
2023/03/28 18:49:57;;;;;;;;;;;13.30;99.90;;;;;;6212806;23;19915;-90
2023/03/28 18:52:25;;;;;;;;;;;13.30;99.90;;;;;;6215720;23;19931;-90
2023/03/28 18:54:50;;;;;;;;;;;13.30;99.90;;;;;;6211854;23;19919;-90
2023/03/28 18:57:16;;;;;;;;;;;13.30;99.90;;;;;;6213005;23;19904;-90
2023/03/28 18:59:41;;;;;;;;;;;13.30;99.90;;;;;;6212501;23;19931;-89
2023/03/28 19:02:11;;;;;;;;;;;13.30;99.90;;;;;;6213992;23;19911;-89
2023/03/28 19:04:36;;;;;;;;;;;13.30;99.90;;;;;;6216164;23;19924;-90
2023/03/28 19:07:03;;;;;;;;;;;13.30;99.90;;;;;;6214376;23;20213;-90
2023/03/28 19:09:28;;;;;;;;;;;13.30;99.90;;;;;;6213936;23;19970;-90
2023/03/28 19:11:54;;;;;;;;;;;13.30;99.90;;;;;;6235947;23;19966;-90
2023/03/28 19:14:19;;;;;;;;;;;13.20;99.90;;;;;;6215083;23;19916;-91
2023/03/28 19:16:45;;;;;;;;;;;13.20;99.90;;;;;;6211249;23;19911;-90
2023/03/28 19:19:11;;;;;;;;;;;13.20;99.90;;;;;;6215145;23;19904;-90
2023/03/28 19:21:36;;;;;;;;;;;13.20;99.90;;;;;;6213292;23;19904;-91
2023/03/28 19:24:02;;;;;;;;;;;13.20;99.90;;;;;;6216582;23;20244;-90
2023/03/28 19:26:27;;;;;;;;;;;13.20;99.90;;;;;;6216835;23;19987;-92
2023/03/28 19:28:53;;;;;;;;;;;13.10;99.90;;;;;;6212480;23;19904;-93
2023/03/28 19:31:22;;;;;;;;;;;13.20;99.90;;;;;;6210775;23;20388;-92
2023/03/28 19:33:48;;;;;;;;;;;13.20;99.90;;;;;;6211594;23;19931;-93
2023/03/28 19:36:13;;;;;;;;;;;13.20;99.90;;;;;;6212197;23;19907;-92
2023/03/28 19:38:39;;;;;;;;;;;13.20;99.90;;;;;;6210762;23;20256;-90
2023/03/28 19:41:08;;;;;;;;;;;13.20;99.90;;;;;;6213429;23;20007;-93
2023/03/28 19:43:34;;;;;;;;;;;13.10;99.90;;;;;;6213282;23;19990;-95
2023/03/28 19:46:01;;;;;;;;;;;13.10;99.90;;;;;;6210852;23;19934;-93
2023/03/28 19:48:26;;;;;;;;;;;13.10;99.90;;;;;;6212628;23;19908;-91
2023/03/28 19:50:52;;;;;;;;;;;13.10;99.90;;;;;;6210546;23;19999;-93
2023/03/28 19:53:18;;;;;;;;;;;13.10;99.90;;;;;;6212309;23;19952;-92
2023/03/28 19:55:49;;;;;;;;;;;13.10;99.90;;;;;;6212193;23;19912;-94
2023/03/28 19:58:15;;;;;;;;;;;13.10;99.90;;;;;;6210570;23;19958;-89
2023/03/28 20:00:40;;;;;;;;;;;13.00;99.90;;;;;;6210970;23;19908;-92
2023/03/28 20:03:06;;;;;;;;;;;13.00;99.90;;;;;;6212159;23;19918;-91
2023/03/28 20:05:31;;;;;;;;;;;13.00;99.90;;;;;;6212469;23;19940;-92
2023/03/28 20:07:57;;;;;;;;;;;12.90;99.90;;;;;;6211844;23;20395;-90
2023/03/28 20:10:22;;;;;;;;;;;12.90;99.90;;;;;;6212117;23;19915;-92
2023/03/28 20:12:48;;;;;;;;;;;12.90;99.90;;;;;;6211637;23;20237;-91
2023/03/28 20:15:13;;;;;;;;;;;12.90;99.90;;;;;;6212220;23;19912;-91
2023/03/28 20:17:39;;;;;;;;;;;12.90;99.90;;;;;;6211455;23;19966;-93
2023/03/28 20:20:05;;;;;;;;;;;12.80;99.90;;;;;;6213398;23;19926;-90
2023/03/28 20:22:33;;;;;;;;;;;12.80;99.90;;;;;;6211503;23;19946;-93
2023/03/28 20:24:58;;;;;;;;;;;12.80;99.90;;;;;;6211585;23;19911;-90
2023/03/28 20:27:24;;;;;;;;;;;12.90;99.90;;;;;;6211642;23;19903;-93
2023/03/28 20:29:50;;;;;;;;;;;12.80;99.90;;;;;;6211983;23;20054;-91
2023/03/28 20:32:16;;;;;;;;;;;12.80;99.90;;;;;;6211018;23;19904;-93
2023/03/28 20:34:41;;;;;;;;;;;12.90;99.90;;;;;;6211729;23;20321;-92
2023/03/28 20:37:07;;;;;;;;;;;12.80;99.90;;;;;;6211556;23;19908;-93
2023/03/28 20:39:35;;;;;;;;;;;12.90;99.90;;;;;;6213342;23;19911;-91
2023/03/28 20:42:01;;;;;;;;;;;12.90;99.90;;;;;;6212392;23;19904;-93
2023/03/28 20:44:28;;;;;;;;;;;12.90;99.90;;;;;;6210063;23;20344;-95
2023/03/28 20:46:54;;;;;;;;;;;12.90;99.90;;;;;;6209387;23;19908;-92
2023/03/28 20:49:20;;;;;;;;;;;12.90;99.90;;;;;;6211946;23;19982;-94
2023/03/28 20:51:48;;;;;;;;;;;12.90;99.90;;;;;;6210224;23;19942;-95
2023/03/28 20:54:14;;;;;;;;;;;12.90;99.90;;;;;;6236184;23;19912;-93
2023/03/28 20:56:40;;;;;;;;;;;12.90;99.90;;;;;;6212198;23;19915;-93
2023/03/28 20:59:06;;;;;;;;;;;12.90;99.90;;;;;;6233061;23;19904;-90
2023/03/28 21:01:48;;;;;;;;;;;12.80;99.90;;;;;;6238711;23;19910;-89
2023/03/28 21:04:16;;;;;;;;;;;12.90;99.90;;;;;;6241247;23;19927;-91
2023/03/28 21:06:43;;;;;;;;;;;13.00;99.90;;;;;;6238049;23;19926;-89
2023/03/28 21:09:31;;;;;;;;;;;12.90;99.90;;;;;;6241077;23;19904;-91
2023/03/28 21:12:10;;;;;;;;;;;12.90;99.90;;;;;;6241532;23;19888;-89
2023/03/28 21:14:39;;;;;;;;;;;12.90;99.90;;;;;;6236557;23;19934;-90
2023/03/28 21:20:27;;;;;;;;;;;12.30;99.90;;;;;;6241643;23;19911;-91
2023/03/28 21:23:27;;;;;;;;;;;12.90;99.90;;;;;;6237971;23;19904;-90
2023/03/28 21:26:16;;;;;;;;;;;12.90;99.90;;;;;;6239297;23;19928;-91
2023/03/28 21:28:41;;;;;;;;;;;13.00;99.90;;;;;;6185211;23;19908;-90
2023/03/28 21:31:42;;;;;;;;;;;12.90;99.90;;;;;;6204754;23;19904;-91
2023/03/28 21:34:08;;;;;;;;;;;12.80;99.90;;;;;;6183851;23;19900;-90
2023/03/28 21:36:34;;;;;;;;;;;12.80;99.90;;;;;;6178872;23;19923;-90
2023/03/28 21:39:19;;;;;;;;;;;12.80;99.90;;;;;;6209177;23;19916;-90
2023/03/28 21:41:48;;;;;;;;;;;12.80;99.90;;;;;;6209310;23;19898;-91
2023/03/28 21:44:15;;;;;;;;;;;12.90;99.90;;;;;;6232571;23;19956;-91
2023/03/28 21:46:41;;;;;;;;;;;12.80;99.90;;;;;;6241240;23;19912;-91
2023/03/28 21:49:07;;;;;;;;;;;12.80;99.90;;;;;;6239065;23;19911;-90
2023/03/28 21:51:54;;;;;;;;;;;12.80;99.90;;;;;;6239348;23;19888;-91
2023/03/28 21:54:42;;;;;;;;;;;12.90;99.90;;;;;;6238668;23;19912;-91
2023/03/28 21:57:11;;;;;;;;;;;12.90;99.90;;;;;;6239196;23;19910;-92
2023/03/28 21:59:37;;;;;;;;;;;12.80;99.90;;;;;;6239271;23;19904;-92
2023/03/28 22:02:03;;;;;;;;;;;12.80;99.90;;;;;;6237081;23;19904;-90
2023/03/28 22:04:45;;;;;;;;;;;12.80;99.90;;;;;;6240930;23;19888;-90
2023/03/28 22:07:11;;;;;;;;;;;12.80;99.90;;;;;;6239888;23;19912;-90
2023/03/28 22:09:53;;;;;;;;;;;12.80;99.90;;;;;;6241225;23;19923;-89
2023/03/28 22:12:43;;;;;;;;;;;12.80;99.90;;;;;;6240344;23;19904;-90